sensor_id;sensor_type;location;lat;lon;timestamp;P1;durP1;ratioP1;P2;durP2;ratioP2
5620;SDS011;2832;50.864;12.186;2023-06-19T00:00:05;0.60;;;0.60;;
5620;SDS011;2832;50.864;12.186;2023-06-19T00:02:40;0.60;;;0.60;;
5620;SDS011;2832;50.864;12.186;2023-06-19T00:05:08;0.60;;;0.60;;
5620;SDS011;2832;50.864;12.186;2023-06-19T00:07:37;0.60;;;0.60;;
5620;SDS011;2832;50.864;12.186;2023-06-19T00:10:08;0.60;;;0.60;;
5620;SDS011;2832;50.864;12.186;2023-06-19T00:12:40;0.60;;;0.60;;
5620;SDS011;2832;50.864;12.186;2023-06-19T00:15:10;0.60;;;0.60;;
5620;SDS011;2832;50.864;12.186;2023-06-19T00:17:40;0.60;;;0.60;;
5620;SDS011;2832;50.864;12.186;2023-06-19T00:20:08;0.50;;;0.50;;
5620;SDS011;2832;50.864;12.186;2023-06-19T00:22:36;0.60;;;0.60;;
5620;SDS011;2832;50.864;12.186;2023-06-19T00:25:04;0.60;;;0.60;;
5620;SDS011;2832;50.864;12.186;2023-06-19T00:27:34;0.50;;;0.50;;
5620;SDS011;2832;50.864;12.186;2023-06-19T00:30:04;0.67;;;0.67;;
5620;SDS011;2832;50.864;12.186;2023-06-19T00:32:34;0.60;;;0.60;;
5620;SDS011;2832;50.864;12.186;2023-06-19T00:35:14;0.50;;;0.50;;
5620;SDS011;2832;50.864;12.186;2023-06-19T00:37:44;0.70;;;0.70;;
5620;SDS011;2832;50.864;12.186;2023-06-19T00:40:18;0.70;;;0.70;;
5620;SDS011;2832;50.864;12.186;2023-06-19T00:42:56;0.70;;;0.70;;
5620;SDS011;2832;50.864;12.186;2023-06-19T00:45:29;0.70;;;0.70;;
5620;SDS011;2832;50.864;12.186;2023-06-19T00:48:05;0.60;;;0.60;;
5620;SDS011;2832;50.864;12.186;2023-06-19T00:50:39;0.67;;;0.67;;
5620;SDS011;2832;50.864;12.186;2023-06-19T00:53:08;0.60;;;0.60;;
5620;SDS011;2832;50.864;12.186;2023-06-19T00:55:38;0.60;;;0.60;;
5620;SDS011;2832;50.864;12.186;2023-06-19T00:58:09;0.60;;;0.60;;
5620;SDS011;2832;50.864;12.186;2023-06-19T01:00:41;0.70;;;0.70;;
5620;SDS011;2832;50.864;12.186;2023-06-19T01:03:17;0.60;;;0.60;;
5620;SDS011;2832;50.864;12.186;2023-06-19T01:05:53;0.60;;;0.60;;
5620;SDS011;2832;50.864;12.186;2023-06-19T01:08:30;0.60;;;0.60;;
5620;SDS011;2832;50.864;12.186;2023-06-19T01:11:17;0.60;;;0.60;;
5620;SDS011;2832;50.864;12.186;2023-06-19T01:13:53;0.70;;;0.70;;
5620;SDS011;2832;50.864;12.186;2023-06-19T01:16:26;0.60;;;0.60;;
5620;SDS011;2832;50.864;12.186;2023-06-19T01:18:57;0.60;;;0.60;;
5620;SDS011;2832;50.864;12.186;2023-06-19T01:21:30;0.60;;;0.60;;
5620;SDS011;2832;50.864;12.186;2023-06-19T01:24:00;0.60;;;0.60;;
5620;SDS011;2832;50.864;12.186;2023-06-19T01:26:30;0.50;;;0.50;;
5620;SDS011;2832;50.864;12.186;2023-06-19T01:29:01;0.70;;;0.70;;
5620;SDS011;2832;50.864;12.186;2023-06-19T01:31:33;0.60;;;0.60;;
5620;SDS011;2832;50.864;12.186;2023-06-19T01:34:13;0.60;;;0.60;;
5620;SDS011;2832;50.864;12.186;2023-06-19T01:36:47;0.63;;;0.63;;
5620;SDS011;2832;50.864;12.186;2023-06-19T01:39:25;0.60;;;0.60;;
5620;SDS011;2832;50.864;12.186;2023-06-19T01:42:03;0.60;;;0.60;;
5620;SDS011;2832;50.864;12.186;2023-06-19T01:44:32;0.70;;;0.70;;
5620;SDS011;2832;50.864;12.186;2023-06-19T01:47:07;0.50;;;0.50;;
5620;SDS011;2832;50.864;12.186;2023-06-19T01:49:47;0.70;;;0.70;;
5620;SDS011;2832;50.864;12.186;2023-06-19T01:52:18;0.60;;;0.60;;
5620;SDS011;2832;50.864;12.186;2023-06-19T01:55:03;0.70;;;0.70;;
5620;SDS011;2832;50.864;12.186;2023-06-19T01:57:32;0.60;;;0.60;;
5620;SDS011;2832;50.864;12.186;2023-06-19T02:00:12;0.70;;;0.70;;
5620;SDS011;2832;50.864;12.186;2023-06-19T02:02:48;0.60;;;0.60;;
5620;SDS011;2832;50.864;12.186;2023-06-19T02:05:29;0.70;;;0.70;;
5620;SDS011;2832;50.864;12.186;2023-06-19T02:08:07;0.63;;;0.63;;
5620;SDS011;2832;50.864;12.186;2023-06-19T02:10:43;0.67;;;0.67;;
5620;SDS011;2832;50.864;12.186;2023-06-19T02:13:18;0.67;;;0.67;;
5620;SDS011;2832;50.864;12.186;2023-06-19T02:15:48;0.60;;;0.60;;
5620;SDS011;2832;50.864;12.186;2023-06-19T02:18:17;0.70;;;0.70;;
5620;SDS011;2832;50.864;12.186;2023-06-19T02:21:14;0.70;;;0.70;;
5620;SDS011;2832;50.864;12.186;2023-06-19T02:23:54;0.60;;;0.60;;
5620;SDS011;2832;50.864;12.186;2023-06-19T02:26:29;0.70;;;0.70;;
5620;SDS011;2832;50.864;12.186;2023-06-19T02:29:00;0.70;;;0.70;;
5620;SDS011;2832;50.864;12.186;2023-06-19T02:31:30;0.20;;;0.20;;
5620;SDS011;2832;50.864;12.186;2023-06-19T02:34:02;0.17;;;0.17;;
5620;SDS011;2832;50.864;12.186;2023-06-19T02:36:44;0.20;;;0.20;;
5620;SDS011;2832;50.864;12.186;2023-06-19T02:39:18;0.10;;;0.10;;
5620;SDS011;2832;50.864;12.186;2023-06-19T02:41:54;0.20;;;0.20;;
5620;SDS011;2832;50.864;12.186;2023-06-19T02:44:29;0.10;;;0.10;;
5620;SDS011;2832;50.864;12.186;2023-06-19T02:47:08;0.70;;;0.70;;
5620;SDS011;2832;50.864;12.186;2023-06-19T02:49:38;0.70;;;0.70;;
5620;SDS011;2832;50.864;12.186;2023-06-19T02:52:12;0.70;;;0.70;;
5620;SDS011;2832;50.864;12.186;2023-06-19T02:54:43;0.60;;;0.60;;
5620;SDS011;2832;50.864;12.186;2023-06-19T02:57:18;0.70;;;0.70;;
5620;SDS011;2832;50.864;12.186;2023-06-19T02:59:52;0.60;;;0.60;;
5620;SDS011;2832;50.864;12.186;2023-06-19T03:02:23;0.70;;;0.70;;
5620;SDS011;2832;50.864;12.186;2023-06-19T03:05:08;0.70;;;0.70;;
5620;SDS011;2832;50.864;12.186;2023-06-19T03:07:39;0.70;;;0.70;;
5620;SDS011;2832;50.864;12.186;2023-06-19T03:10:10;0.70;;;0.70;;
5620;SDS011;2832;50.864;12.186;2023-06-19T03:12:48;0.60;;;0.60;;
5620;SDS011;2832;50.864;12.186;2023-06-19T03:15:20;0.70;;;0.70;;
5620;SDS011;2832;50.864;12.186;2023-06-19T03:18:00;0.63;;;0.63;;
5620;SDS011;2832;50.864;12.186;2023-06-19T03:20:36;0.60;;;0.60;;
5620;SDS011;2832;50.864;12.186;2023-06-19T03:23:08;0.70;;;0.70;;
5620;SDS011;2832;50.864;12.186;2023-06-19T03:25:45;0.70;;;0.70;;
5620;SDS011;2832;50.864;12.186;2023-06-19T03:28:27;0.70;;;0.70;;
5620;SDS011;2832;50.864;12.186;2023-06-19T03:31:09;0.70;;;0.70;;
5620;SDS011;2832;50.864;12.186;2023-06-19T03:33:43;0.70;;;0.70;;
5620;SDS011;2832;50.864;12.186;2023-06-19T03:36:15;0.60;;;0.60;;
5620;SDS011;2832;50.864;12.186;2023-06-19T03:39:30;0.60;;;0.60;;
5620;SDS011;2832;50.864;12.186;2023-06-19T03:42:40;0.70;;;0.70;;
5620;SDS011;2832;50.864;12.186;2023-06-19T03:45:44;0.60;;;0.60;;
5620;SDS011;2832;50.864;12.186;2023-06-19T03:48:24;0.70;;;0.70;;
5620;SDS011;2832;50.864;12.186;2023-06-19T03:51:21;0.60;;;0.60;;
5620;SDS011;2832;50.864;12.186;2023-06-19T03:53:58;0.60;;;0.60;;
5620;SDS011;2832;50.864;12.186;2023-06-19T03:56:49;0.70;;;0.70;;
5620;SDS011;2832;50.864;12.186;2023-06-19T03:59:23;0.60;;;0.60;;
5620;SDS011;2832;50.864;12.186;2023-06-19T04:01:59;0.70;;;0.70;;
5620;SDS011;2832;50.864;12.186;2023-06-19T04:04:40;0.70;;;0.70;;
5620;SDS011;2832;50.864;12.186;2023-06-19T04:07:27;0.70;;;0.70;;
5620;SDS011;2832;50.864;12.186;2023-06-19T04:09:58;0.60;;;0.60;;
5620;SDS011;2832;50.864;12.186;2023-06-19T04:12:50;0.70;;;0.70;;
5620;SDS011;2832;50.864;12.186;2023-06-19T04:15:21;0.60;;;0.60;;
5620;SDS011;2832;50.864;12.186;2023-06-19T04:18:56;0.70;;;0.70;;
5620;SDS011;2832;50.864;12.186;2023-06-19T04:21:50;0.70;;;0.70;;
5620;SDS011;2832;50.864;12.186;2023-06-19T04:24:39;0.70;;;0.70;;
5620;SDS011;2832;50.864;12.186;2023-06-19T04:27:21;0.70;;;0.70;;
5620;SDS011;2832;50.864;12.186;2023-06-19T04:29:51;0.70;;;0.70;;
5620;SDS011;2832;50.864;12.186;2023-06-19T04:32:31;0.70;;;0.70;;
5620;SDS011;2832;50.864;12.186;2023-06-19T04:35:17;0.70;;;0.70;;
5620;SDS011;2832;50.864;12.186;2023-06-19T04:37:52;0.70;;;0.70;;
5620;SDS011;2832;50.864;12.186;2023-06-19T04:40:28;0.70;;;0.70;;
5620;SDS011;2832;50.864;12.186;2023-06-19T04:43:01;0.60;;;0.60;;
5620;SDS011;2832;50.864;12.186;2023-06-19T04:45:44;0.60;;;0.60;;
5620;SDS011;2832;50.864;12.186;2023-06-19T04:48:15;0.70;;;0.70;;
5620;SDS011;2832;50.864;12.186;2023-06-19T04:58:32;0.70;;;0.70;;
5620;SDS011;2832;50.864;12.186;2023-06-19T05:01:24;0.60;;;0.60;;
5620;SDS011;2832;50.864;12.186;2023-06-19T05:04:17;0.70;;;0.70;;
5620;SDS011;2832;50.864;12.186;2023-06-19T05:06:59;0.70;;;0.70;;
5620;SDS011;2832;50.864;12.186;2023-06-19T05:09:42;0.60;;;0.60;;
5620;SDS011;2832;50.864;12.186;2023-06-19T05:22:46;0.60;;;0.60;;
5620;SDS011;2832;50.864;12.186;2023-06-19T05:25:26;0.60;;;0.60;;
5620;SDS011;2832;50.864;12.186;2023-06-19T05:31:54;0.70;;;0.70;;
5620;SDS011;2832;50.864;12.186;2023-06-19T05:35:26;0.70;;;0.70;;
5620;SDS011;2832;50.864;12.186;2023-06-19T05:37:56;0.70;;;0.70;;
5620;SDS011;2832;50.864;12.186;2023-06-19T05:41:05;0.70;;;0.70;;
5620;SDS011;2832;50.864;12.186;2023-06-19T05:56:06;0.70;;;0.70;;
5620;SDS011;2832;50.864;12.186;2023-06-19T05:58:47;0.70;;;0.70;;
5620;SDS011;2832;50.864;12.186;2023-06-19T06:01:24;0.70;;;0.70;;
5620;SDS011;2832;50.864;12.186;2023-06-19T06:04:02;0.70;;;0.70;;
5620;SDS011;2832;50.864;12.186;2023-06-19T06:06:36;0.60;;;0.60;;
5620;SDS011;2832;50.864;12.186;2023-06-19T06:09:20;0.70;;;0.70;;
5620;SDS011;2832;50.864;12.186;2023-06-19T06:11:58;0.60;;;0.60;;
5620;SDS011;2832;50.864;12.186;2023-06-19T06:14:55;0.70;;;0.70;;
5620;SDS011;2832;50.864;12.186;2023-06-19T06:17:28;0.70;;;0.70;;
5620;SDS011;2832;50.864;12.186;2023-06-19T06:20:00;0.70;;;0.70;;
5620;SDS011;2832;50.864;12.186;2023-06-19T06:22:44;0.70;;;0.70;;
5620;SDS011;2832;50.864;12.186;2023-06-19T06:25:19;0.70;;;0.70;;
5620;SDS011;2832;50.864;12.186;2023-06-19T06:27:53;0.70;;;0.70;;
5620;SDS011;2832;50.864;12.186;2023-06-19T06:30:22;0.80;;;0.80;;
5620;SDS011;2832;50.864;12.186;2023-06-19T06:33:05;0.70;;;0.70;;
5620;SDS011;2832;50.864;12.186;2023-06-19T06:35:39;0.73;;;0.73;;
5620;SDS011;2832;50.864;12.186;2023-06-19T06:38:15;0.70;;;0.70;;
5620;SDS011;2832;50.864;12.186;2023-06-19T06:41:07;0.70;;;0.70;;
5620;SDS011;2832;50.864;12.186;2023-06-19T06:47:38;0.70;;;0.70;;
5620;SDS011;2832;50.864;12.186;2023-06-19T06:51:31;0.70;;;0.70;;
5620;SDS011;2832;50.864;12.186;2023-06-19T06:54:16;0.70;;;0.70;;
5620;SDS011;2832;50.864;12.186;2023-06-19T06:56:54;0.60;;;0.60;;
5620;SDS011;2832;50.864;12.186;2023-06-19T07:02:41;0.70;;;0.70;;
5620;SDS011;2832;50.864;12.186;2023-06-19T07:05:13;0.60;;;0.60;;
5620;SDS011;2832;50.864;12.186;2023-06-19T07:07:50;0.70;;;0.70;;
5620;SDS011;2832;50.864;12.186;2023-06-19T07:10:20;0.70;;;0.70;;
5620;SDS011;2832;50.864;12.186;2023-06-19T07:12:53;0.60;;;0.60;;
5620;SDS011;2832;50.864;12.186;2023-06-19T07:15:30;0.70;;;0.70;;
5620;SDS011;2832;50.864;12.186;2023-06-19T07:17:58;0.73;;;0.73;;
5620;SDS011;2832;50.864;12.186;2023-06-19T07:20:26;0.70;;;0.70;;
5620;SDS011;2832;50.864;12.186;2023-06-19T07:22:56;0.63;;;0.63;;
5620;SDS011;2832;50.864;12.186;2023-06-19T07:28:31;0.70;;;0.70;;
5620;SDS011;2832;50.864;12.186;2023-06-19T07:31:04;0.63;;;0.63;;
5620;SDS011;2832;50.864;12.186;2023-06-19T07:33:33;0.63;;;0.63;;
5620;SDS011;2832;50.864;12.186;2023-06-19T07:36:08;0.70;;;0.70;;
5620;SDS011;2832;50.864;12.186;2023-06-19T07:38:42;0.70;;;0.70;;
5620;SDS011;2832;50.864;12.186;2023-06-19T07:41:39;0.70;;;0.70;;
5620;SDS011;2832;50.864;12.186;2023-06-19T07:44:14;0.60;;;0.60;;
5620;SDS011;2832;50.864;12.186;2023-06-19T07:46:49;0.60;;;0.60;;
5620;SDS011;2832;50.864;12.186;2023-06-19T07:49:19;0.70;;;0.70;;
5620;SDS011;2832;50.864;12.186;2023-06-19T07:51:50;0.70;;;0.70;;
5620;SDS011;2832;50.864;12.186;2023-06-19T07:54:20;0.60;;;0.60;;
5620;SDS011;2832;50.864;12.186;2023-06-19T07:56:55;0.70;;;0.70;;
5620;SDS011;2832;50.864;12.186;2023-06-19T07:59:36;0.67;;;0.67;;
5620;SDS011;2832;50.864;12.186;2023-06-19T08:02:15;0.70;;;0.70;;
5620;SDS011;2832;50.864;12.186;2023-06-19T08:04:48;0.60;;;0.60;;
5620;SDS011;2832;50.864;12.186;2023-06-19T08:07:21;0.70;;;0.70;;
5620;SDS011;2832;50.864;12.186;2023-06-19T08:09:59;0.60;;;0.60;;
5620;SDS011;2832;50.864;12.186;2023-06-19T08:15:24;0.60;;;0.60;;
5620;SDS011;2832;50.864;12.186;2023-06-19T08:17:54;0.63;;;0.63;;
5620;SDS011;2832;50.864;12.186;2023-06-19T08:20:24;0.60;;;0.60;;
5620;SDS011;2832;50.864;12.186;2023-06-19T08:22:55;0.77;;;0.77;;
5620;SDS011;2832;50.864;12.186;2023-06-19T08:25:32;0.60;;;0.60;;
5620;SDS011;2832;50.864;12.186;2023-06-19T08:28:06;0.73;;;0.73;;
5620;SDS011;2832;50.864;12.186;2023-06-19T08:30:36;0.60;;;0.60;;
5620;SDS011;2832;50.864;12.186;2023-06-19T08:33:09;0.70;;;0.70;;
5620;SDS011;2832;50.864;12.186;2023-06-19T08:35:53;0.70;;;0.70;;
5620;SDS011;2832;50.864;12.186;2023-06-19T08:38:24;0.60;;;0.60;;
5620;SDS011;2832;50.864;12.186;2023-06-19T08:41:14;0.60;;;0.60;;
5620;SDS011;2832;50.864;12.186;2023-06-19T08:46:50;0.70;;;0.70;;
5620;SDS011;2832;50.864;12.186;2023-06-19T08:49:23;0.60;;;0.60;;
5620;SDS011;2832;50.864;12.186;2023-06-19T08:52:02;0.70;;;0.70;;
5620;SDS011;2832;50.864;12.186;2023-06-19T08:54:32;0.70;;;0.70;;
5620;SDS011;2832;50.864;12.186;2023-06-19T08:57:10;0.50;;;0.50;;
5620;SDS011;2832;50.864;12.186;2023-06-19T08:59:54;0.70;;;0.70;;
5620;SDS011;2832;50.864;12.186;2023-06-19T09:02:42;0.60;;;0.60;;
5620;SDS011;2832;50.864;12.186;2023-06-19T09:05:22;0.70;;;0.70;;
5620;SDS011;2832;50.864;12.186;2023-06-19T09:08:00;0.60;;;0.60;;
5620;SDS011;2832;50.864;12.186;2023-06-19T09:10:39;0.60;;;0.60;;
5620;SDS011;2832;50.864;12.186;2023-06-19T09:13:13;0.67;;;0.67;;
5620;SDS011;2832;50.864;12.186;2023-06-19T09:15:46;0.60;;;0.60;;
5620;SDS011;2832;50.864;12.186;2023-06-19T09:18:20;0.70;;;0.70;;
5620;SDS011;2832;50.864;12.186;2023-06-19T09:20:51;0.70;;;0.70;;
5620;SDS011;2832;50.864;12.186;2023-06-19T09:23:36;0.60;;;0.60;;
5620;SDS011;2832;50.864;12.186;2023-06-19T09:26:14;0.70;;;0.70;;
5620;SDS011;2832;50.864;12.186;2023-06-19T09:28:45;0.70;;;0.70;;
5620;SDS011;2832;50.864;12.186;2023-06-19T09:31:30;0.63;;;0.63;;
5620;SDS011;2832;50.864;12.186;2023-06-19T09:34:05;0.70;;;0.70;;
5620;SDS011;2832;50.864;12.186;2023-06-19T09:36:36;0.70;;;0.70;;
5620;SDS011;2832;50.864;12.186;2023-06-19T09:39:19;0.70;;;0.70;;
5620;SDS011;2832;50.864;12.186;2023-06-19T09:42:13;0.67;;;0.67;;
5620;SDS011;2832;50.864;12.186;2023-06-19T09:44:49;0.70;;;0.70;;
5620;SDS011;2832;50.864;12.186;2023-06-19T09:51:00;0.70;;;0.70;;
5620;SDS011;2832;50.864;12.186;2023-06-19T09:53:40;0.70;;;0.70;;
5620;SDS011;2832;50.864;12.186;2023-06-19T09:59:21;0.70;;;0.70;;
5620;SDS011;2832;50.864;12.186;2023-06-19T10:01:57;0.60;;;0.60;;
5620;SDS011;2832;50.864;12.186;2023-06-19T10:04:43;0.70;;;0.70;;
5620;SDS011;2832;50.864;12.186;2023-06-19T10:07:17;0.50;;;0.50;;
5620;SDS011;2832;50.864;12.186;2023-06-19T10:09:58;0.70;;;0.70;;
5620;SDS011;2832;50.864;12.186;2023-06-19T10:12:34;0.60;;;0.60;;
5620;SDS011;2832;50.864;12.186;2023-06-19T10:15:12;0.60;;;0.60;;
5620;SDS011;2832;50.864;12.186;2023-06-19T10:18:12;0.60;;;0.60;;
5620;SDS011;2832;50.864;12.186;2023-06-19T10:20:49;0.67;;;0.67;;
5620;SDS011;2832;50.864;12.186;2023-06-19T10:29:52;0.67;;;0.67;;
5620;SDS011;2832;50.864;12.186;2023-06-19T10:32:32;0.60;;;0.60;;
5620;SDS011;2832;50.864;12.186;2023-06-19T10:35:10;0.50;;;0.50;;
5620;SDS011;2832;50.864;12.186;2023-06-19T10:37:42;0.60;;;0.60;;
5620;SDS011;2832;50.864;12.186;2023-06-19T10:40:24;0.63;;;0.63;;
5620;SDS011;2832;50.864;12.186;2023-06-19T10:43:30;0.50;;;0.50;;
5620;SDS011;2832;50.864;12.186;2023-06-19T10:46:52;0.67;;;0.67;;
5620;SDS011;2832;50.864;12.186;2023-06-19T10:49:45;0.57;;;0.57;;
5620;SDS011;2832;50.864;12.186;2023-06-19T10:52:35;0.60;;;0.60;;
5620;SDS011;2832;50.864;12.186;2023-06-19T10:55:15;0.60;;;0.60;;
5620;SDS011;2832;50.864;12.186;2023-06-19T10:57:48;0.50;;;0.50;;
5620;SDS011;2832;50.864;12.186;2023-06-19T11:00:26;0.50;;;0.50;;
5620;SDS011;2832;50.864;12.186;2023-06-19T11:02:57;0.60;;;0.60;;
5620;SDS011;2832;50.864;12.186;2023-06-19T11:05:36;0.50;;;0.50;;
5620;SDS011;2832;50.864;12.186;2023-06-19T11:15:15;0.53;;;0.53;;
5620;SDS011;2832;50.864;12.186;2023-06-19T11:17:47;0.50;;;0.50;;
5620;SDS011;2832;50.864;12.186;2023-06-19T11:20:27;0.60;;;0.60;;
5620;SDS011;2832;50.864;12.186;2023-06-19T11:23:34;0.60;;;0.60;;
5620;SDS011;2832;50.864;12.186;2023-06-19T11:32:06;0.60;;;0.60;;
5620;SDS011;2832;50.864;12.186;2023-06-19T11:34:39;0.60;;;0.60;;
5620;SDS011;2832;50.864;12.186;2023-06-19T11:37:34;0.60;;;0.60;;
5620;SDS011;2832;50.864;12.186;2023-06-19T11:40:41;0.60;;;0.60;;
5620;SDS011;2832;50.864;12.186;2023-06-19T11:43:11;0.50;;;0.50;;
5620;SDS011;2832;50.864;12.186;2023-06-19T11:46:12;0.50;;;0.50;;
5620;SDS011;2832;50.864;12.186;2023-06-19T11:52:13;0.60;;;0.60;;
5620;SDS011;2832;50.864;12.186;2023-06-19T11:54:52;0.60;;;0.60;;
5620;SDS011;2832;50.864;12.186;2023-06-19T12:12:33;0.60;;;0.60;;
5620;SDS011;2832;50.864;12.186;2023-06-19T12:15:09;0.60;;;0.60;;
5620;SDS011;2832;50.864;12.186;2023-06-19T12:18:10;0.50;;;0.50;;
5620;SDS011;2832;50.864;12.186;2023-06-19T12:20:40;0.50;;;0.50;;
5620;SDS011;2832;50.864;12.186;2023-06-19T12:23:13;0.50;;;0.50;;
5620;SDS011;2832;50.864;12.186;2023-06-19T12:28:51;0.50;;;0.50;;
5620;SDS011;2832;50.864;12.186;2023-06-19T12:31:23;0.50;;;0.50;;
5620;SDS011;2832;50.864;12.186;2023-06-19T12:37:14;0.50;;;0.50;;
5620;SDS011;2832;50.864;12.186;2023-06-19T12:40:37;0.50;;;0.50;;
5620;SDS011;2832;50.864;12.186;2023-06-19T12:43:21;0.50;;;0.50;;
5620;SDS011;2832;50.864;12.186;2023-06-19T12:45:57;0.57;;;0.57;;
5620;SDS011;2832;50.864;12.186;2023-06-19T12:48:35;0.50;;;0.50;;
5620;SDS011;2832;50.864;12.186;2023-06-19T12:51:48;0.50;;;0.50;;
5620;SDS011;2832;50.864;12.186;2023-06-19T12:54:24;0.60;;;0.60;;
5620;SDS011;2832;50.864;12.186;2023-06-19T12:57:10;0.60;;;0.60;;
5620;SDS011;2832;50.864;12.186;2023-06-19T13:00:15;0.50;;;0.50;;
5620;SDS011;2832;50.864;12.186;2023-06-19T13:03:10;0.60;;;0.60;;
5620;SDS011;2832;50.864;12.186;2023-06-19T13:09:34;0.60;;;0.60;;
5620;SDS011;2832;50.864;12.186;2023-06-19T13:12:24;0.50;;;0.50;;
5620;SDS011;2832;50.864;12.186;2023-06-19T13:14:55;0.60;;;0.60;;
5620;SDS011;2832;50.864;12.186;2023-06-19T13:17:30;0.60;;;0.60;;
5620;SDS011;2832;50.864;12.186;2023-06-19T13:20:33;0.50;;;0.50;;
5620;SDS011;2832;50.864;12.186;2023-06-19T13:23:20;0.60;;;0.60;;
5620;SDS011;2832;50.864;12.186;2023-06-19T13:25:58;0.60;;;0.60;;
5620;SDS011;2832;50.864;12.186;2023-06-19T13:28:35;0.60;;;0.60;;
5620;SDS011;2832;50.864;12.186;2023-06-19T13:31:34;0.60;;;0.60;;
5620;SDS011;2832;50.864;12.186;2023-06-19T13:34:08;0.60;;;0.60;;
5620;SDS011;2832;50.864;12.186;2023-06-19T13:36:38;0.53;;;0.53;;
5620;SDS011;2832;50.864;12.186;2023-06-19T13:39:14;0.60;;;0.60;;
5620;SDS011;2832;50.864;12.186;2023-06-19T13:41:46;0.60;;;0.60;;
5620;SDS011;2832;50.864;12.186;2023-06-19T13:44:19;0.50;;;0.50;;
5620;SDS011;2832;50.864;12.186;2023-06-19T13:46:51;0.50;;;0.50;;
5620;SDS011;2832;50.864;12.186;2023-06-19T13:49:27;0.50;;;0.50;;
5620;SDS011;2832;50.864;12.186;2023-06-19T13:52:07;0.50;;;0.50;;
5620;SDS011;2832;50.864;12.186;2023-06-19T13:54:36;0.50;;;0.50;;
5620;SDS011;2832;50.864;12.186;2023-06-19T13:57:21;0.50;;;0.50;;
5620;SDS011;2832;50.864;12.186;2023-06-19T14:00:08;0.50;;;0.50;;
5620;SDS011;2832;50.864;12.186;2023-06-19T14:02:39;0.50;;;0.50;;
5620;SDS011;2832;50.864;12.186;2023-06-19T14:08:29;0.50;;;0.50;;
5620;SDS011;2832;50.864;12.186;2023-06-19T14:11:06;0.50;;;0.50;;
5620;SDS011;2832;50.864;12.186;2023-06-19T14:13:42;0.60;;;0.60;;
5620;SDS011;2832;50.864;12.186;2023-06-19T14:16:15;0.50;;;0.50;;
5620;SDS011;2832;50.864;12.186;2023-06-19T14:18:44;0.50;;;0.50;;
5620;SDS011;2832;50.864;12.186;2023-06-19T14:24:20;0.50;;;0.50;;
5620;SDS011;2832;50.864;12.186;2023-06-19T14:29:49;0.50;;;0.50;;
5620;SDS011;2832;50.864;12.186;2023-06-19T14:32:38;0.50;;;0.50;;
5620;SDS011;2832;50.864;12.186;2023-06-19T14:35:07;0.50;;;0.50;;
5620;SDS011;2832;50.864;12.186;2023-06-19T14:37:38;0.50;;;0.50;;
5620;SDS011;2832;50.864;12.186;2023-06-19T14:40:20;0.50;;;0.50;;
5620;SDS011;2832;50.864;12.186;2023-06-19T14:42:50;0.50;;;0.50;;
5620;SDS011;2832;50.864;12.186;2023-06-19T14:45:48;0.50;;;0.50;;
5620;SDS011;2832;50.864;12.186;2023-06-19T14:48:18;0.50;;;0.50;;
5620;SDS011;2832;50.864;12.186;2023-06-19T14:50:51;0.50;;;0.50;;
5620;SDS011;2832;50.864;12.186;2023-06-19T14:53:34;0.40;;;0.40;;
5620;SDS011;2832;50.864;12.186;2023-06-19T14:56:16;0.50;;;0.50;;
5620;SDS011;2832;50.864;12.186;2023-06-19T14:59:21;0.50;;;0.50;;
5620;SDS011;2832;50.864;12.186;2023-06-19T15:01:53;0.50;;;0.50;;
5620;SDS011;2832;50.864;12.186;2023-06-19T15:04:32;0.50;;;0.50;;
5620;SDS011;2832;50.864;12.186;2023-06-19T15:10:10;0.50;;;0.50;;
5620;SDS011;2832;50.864;12.186;2023-06-19T15:13:02;0.50;;;0.50;;
5620;SDS011;2832;50.864;12.186;2023-06-19T15:15:48;0.50;;;0.50;;
5620;SDS011;2832;50.864;12.186;2023-06-19T15:18:29;0.50;;;0.50;;
5620;SDS011;2832;50.864;12.186;2023-06-19T15:20:59;0.50;;;0.50;;
5620;SDS011;2832;50.864;12.186;2023-06-19T15:23:48;0.50;;;0.50;;
5620;SDS011;2832;50.864;12.186;2023-06-19T15:26:59;0.50;;;0.50;;
5620;SDS011;2832;50.864;12.186;2023-06-19T15:29:51;0.55;;;0.55;;
5620;SDS011;2832;50.864;12.186;2023-06-19T15:32:39;0.50;;;0.50;;
5620;SDS011;2832;50.864;12.186;2023-06-19T15:35:25;0.55;;;0.55;;
5620;SDS011;2832;50.864;12.186;2023-06-19T15:38:01;0.50;;;0.50;;
5620;SDS011;2832;50.864;12.186;2023-06-19T15:40:42;0.50;;;0.50;;
5620;SDS011;2832;50.864;12.186;2023-06-19T15:43:36;0.60;;;0.60;;
5620;SDS011;2832;50.864;12.186;2023-06-19T15:46:30;0.50;;;0.50;;
5620;SDS011;2832;50.864;12.186;2023-06-19T15:48:58;0.60;;;0.60;;
5620;SDS011;2832;50.864;12.186;2023-06-19T15:51:39;0.50;;;0.50;;
5620;SDS011;2832;50.864;12.186;2023-06-19T15:54:28;0.50;;;0.50;;
5620;SDS011;2832;50.864;12.186;2023-06-19T15:57:13;0.50;;;0.50;;
5620;SDS011;2832;50.864;12.186;2023-06-19T15:59:57;0.50;;;0.50;;
5620;SDS011;2832;50.864;12.186;2023-06-19T16:02:34;0.60;;;0.60;;
5620;SDS011;2832;50.864;12.186;2023-06-19T16:05:04;0.50;;;0.50;;
5620;SDS011;2832;50.864;12.186;2023-06-19T16:08:08;0.50;;;0.50;;
5620;SDS011;2832;50.864;12.186;2023-06-19T16:11:13;0.53;;;0.53;;
5620;SDS011;2832;50.864;12.186;2023-06-19T16:13:48;0.50;;;0.50;;
5620;SDS011;2832;50.864;12.186;2023-06-19T16:16:24;0.50;;;0.50;;
5620;SDS011;2832;50.864;12.186;2023-06-19T16:19:00;0.50;;;0.50;;
5620;SDS011;2832;50.864;12.186;2023-06-19T16:21:41;0.50;;;0.50;;
5620;SDS011;2832;50.864;12.186;2023-06-19T16:24:37;0.50;;;0.50;;
5620;SDS011;2832;50.864;12.186;2023-06-19T16:27:08;0.50;;;0.50;;
5620;SDS011;2832;50.864;12.186;2023-06-19T16:29:39;0.50;;;0.50;;
5620;SDS011;2832;50.864;12.186;2023-06-19T16:32:14;0.50;;;0.50;;
5620;SDS011;2832;50.864;12.186;2023-06-19T16:34:46;0.55;;;0.55;;
5620;SDS011;2832;50.864;12.186;2023-06-19T16:37:17;0.57;;;0.57;;
5620;SDS011;2832;50.864;12.186;2023-06-19T16:39:54;0.50;;;0.50;;
5620;SDS011;2832;50.864;12.186;2023-06-19T16:46:51;0.50;;;0.50;;
5620;SDS011;2832;50.864;12.186;2023-06-19T16:49:25;0.60;;;0.60;;
5620;SDS011;2832;50.864;12.186;2023-06-19T16:52:07;0.50;;;0.50;;
5620;SDS011;2832;50.864;12.186;2023-06-19T16:54:58;0.60;;;0.60;;
5620;SDS011;2832;50.864;12.186;2023-06-19T16:57:29;0.52;;;0.52;;
5620;SDS011;2832;50.864;12.186;2023-06-19T17:00:03;0.50;;;0.50;;
5620;SDS011;2832;50.864;12.186;2023-06-19T17:02:37;0.40;;;0.40;;
5620;SDS011;2832;50.864;12.186;2023-06-19T17:05:05;0.50;;;0.50;;
5620;SDS011;2832;50.864;12.186;2023-06-19T17:10:42;0.50;;;0.50;;
5620;SDS011;2832;50.864;12.186;2023-06-19T17:13:45;0.50;;;0.50;;
5620;SDS011;2832;50.864;12.186;2023-06-19T17:16:31;0.50;;;0.50;;
5620;SDS011;2832;50.864;12.186;2023-06-19T17:19:09;0.40;;;0.40;;
5620;SDS011;2832;50.864;12.186;2023-06-19T17:21:57;0.50;;;0.50;;
5620;SDS011;2832;50.864;12.186;2023-06-19T17:24:49;0.60;;;0.60;;
5620;SDS011;2832;50.864;12.186;2023-06-19T17:27:27;0.50;;;0.50;;
5620;SDS011;2832;50.864;12.186;2023-06-19T17:29:58;0.43;;;0.43;;
5620;SDS011;2832;50.864;12.186;2023-06-19T17:32:35;0.50;;;0.50;;
5620;SDS011;2832;50.864;12.186;2023-06-19T17:35:37;0.50;;;0.50;;
5620;SDS011;2832;50.864;12.186;2023-06-19T17:38:19;0.60;;;0.60;;
5620;SDS011;2832;50.864;12.186;2023-06-19T17:41:07;0.50;;;0.50;;
5620;SDS011;2832;50.864;12.186;2023-06-19T17:43:37;0.60;;;0.60;;
5620;SDS011;2832;50.864;12.186;2023-06-19T17:49:15;0.50;;;0.50;;
5620;SDS011;2832;50.864;12.186;2023-06-19T17:51:47;0.50;;;0.50;;
5620;SDS011;2832;50.864;12.186;2023-06-19T17:54:16;0.50;;;0.50;;
5620;SDS011;2832;50.864;12.186;2023-06-19T17:56:50;0.50;;;0.50;;
5620;SDS011;2832;50.864;12.186;2023-06-19T17:59:18;0.50;;;0.50;;
5620;SDS011;2832;50.864;12.186;2023-06-19T18:01:55;0.50;;;0.50;;
5620;SDS011;2832;50.864;12.186;2023-06-19T18:04:24;0.47;;;0.47;;
5620;SDS011;2832;50.864;12.186;2023-06-19T18:06:55;0.52;;;0.52;;
5620;SDS011;2832;50.864;12.186;2023-06-19T18:09:23;0.55;;;0.55;;
5620;SDS011;2832;50.864;12.186;2023-06-19T18:11:57;0.47;;;0.47;;
5620;SDS011;2832;50.864;12.186;2023-06-19T18:14:27;0.60;;;0.60;;
5620;SDS011;2832;50.864;12.186;2023-06-19T18:17:29;0.50;;;0.50;;
5620;SDS011;2832;50.864;12.186;2023-06-19T18:20:06;0.50;;;0.50;;